sensor_id;sensor_type;location;lat;lon;timestamp;P1;durP1;ratioP1;P2;durP2;ratioP2
48853;SDS011;34673;52.808;17.856;2024-02-21T00:01:40;34.10;;;8.25;;
48853;SDS011;34673;52.808;17.856;2024-02-21T00:04:09;28.27;;;7.85;;
48853;SDS011;34673;52.808;17.856;2024-02-21T00:06:37;33.20;;;8.75;;
48853;SDS011;34673;52.808;17.856;2024-02-21T00:09:05;24.08;;;7.57;;
48853;SDS011;34673;52.808;17.856;2024-02-21T00:11:33;26.23;;;7.47;;
48853;SDS011;34673;52.808;17.856;2024-02-21T00:14:01;33.55;;;8.02;;
48853;SDS011;34673;52.808;17.856;2024-02-21T00:16:29;32.70;;;7.63;;
48853;SDS011;34673;52.808;17.856;2024-02-21T00:18:56;30.90;;;7.43;;
48853;SDS011;34673;52.808;17.856;2024-02-21T00:21:24;33.63;;;8.13;;
48853;SDS011;34673;52.808;17.856;2024-02-21T00:23:51;30.38;;;7.53;;
48853;SDS011;34673;52.808;17.856;2024-02-21T00:26:19;34.90;;;7.72;;
48853;SDS011;34673;52.808;17.856;2024-02-21T00:28:46;33.08;;;7.95;;
48853;SDS011;34673;52.808;17.856;2024-02-21T00:31:14;24.60;;;6.75;;
48853;SDS011;34673;52.808;17.856;2024-02-21T00:33:41;29.20;;;7.07;;
48853;SDS011;34673;52.808;17.856;2024-02-21T00:36:09;31.80;;;6.95;;
48853;SDS011;34673;52.808;17.856;2024-02-21T00:38:36;36.25;;;7.65;;
48853;SDS011;34673;52.808;17.856;2024-02-21T00:41:04;30.40;;;7.72;;
48853;SDS011;34673;52.808;17.856;2024-02-21T00:43:31;35.13;;;8.27;;
48853;SDS011;34673;52.808;17.856;2024-02-21T00:45:59;41.38;;;8.10;;
48853;SDS011;34673;52.808;17.856;2024-02-21T00:48:26;44.25;;;8.65;;
48853;SDS011;34673;52.808;17.856;2024-02-21T00:50:54;30.15;;;7.82;;
48853;SDS011;34673;52.808;17.856;2024-02-21T00:53:21;38.28;;;7.97;;
48853;SDS011;34673;52.808;17.856;2024-02-21T00:55:49;28.60;;;7.55;;
48853;SDS011;34673;52.808;17.856;2024-02-21T00:58:16;37.53;;;7.93;;
48853;SDS011;34673;52.808;17.856;2024-02-21T01:00:43;30.65;;;8.25;;
48853;SDS011;34673;52.808;17.856;2024-02-21T01:03:11;37.35;;;7.50;;
48853;SDS011;34673;52.808;17.856;2024-02-21T01:05:38;37.83;;;8.07;;
48853;SDS011;34673;52.808;17.856;2024-02-21T01:08:06;31.30;;;8.50;;
48853;SDS011;34673;52.808;17.856;2024-02-21T01:10:34;37.60;;;8.48;;
48853;SDS011;34673;52.808;17.856;2024-02-21T01:13:02;28.42;;;8.02;;
48853;SDS011;34673;52.808;17.856;2024-02-21T01:15:29;37.08;;;8.70;;
48853;SDS011;34673;52.808;17.856;2024-02-21T01:17:57;33.72;;;9.32;;
48853;SDS011;34673;52.808;17.856;2024-02-21T01:20:24;38.70;;;8.85;;
48853;SDS011;34673;52.808;17.856;2024-02-21T01:22:51;34.08;;;8.65;;
48853;SDS011;34673;52.808;17.856;2024-02-21T01:25:19;37.80;;;8.88;;
48853;SDS011;34673;52.808;17.856;2024-02-21T01:27:47;41.67;;;8.43;;
48853;SDS011;34673;52.808;17.856;2024-02-21T01:30:14;37.22;;;8.90;;
48853;SDS011;34673;52.808;17.856;2024-02-21T01:32:42;30.58;;;8.82;;
48853;SDS011;34673;52.808;17.856;2024-02-21T01:35:09;42.40;;;8.60;;
48853;SDS011;34673;52.808;17.856;2024-02-21T01:37:37;35.22;;;8.75;;
48853;SDS011;34673;52.808;17.856;2024-02-21T01:40:05;36.35;;;9.20;;
48853;SDS011;34673;52.808;17.856;2024-02-21T01:42:33;35.13;;;8.50;;
48853;SDS011;34673;52.808;17.856;2024-02-21T01:45:05;36.08;;;8.82;;
48853;SDS011;34673;52.808;17.856;2024-02-21T01:47:32;38.05;;;9.18;;
48853;SDS011;34673;52.808;17.856;2024-02-21T01:50:01;42.92;;;9.18;;
48853;SDS011;34673;52.808;17.856;2024-02-21T01:52:29;34.13;;;8.35;;
48853;SDS011;34673;52.808;17.856;2024-02-21T01:54:58;36.53;;;8.20;;
48853;SDS011;34673;52.808;17.856;2024-02-21T01:57:26;34.15;;;8.63;;
48853;SDS011;34673;52.808;17.856;2024-02-21T01:59:55;43.40;;;9.65;;
48853;SDS011;34673;52.808;17.856;2024-02-21T02:02:25;41.95;;;8.85;;
48853;SDS011;34673;52.808;17.856;2024-02-21T02:04:53;38.10;;;9.70;;
48853;SDS011;34673;52.808;17.856;2024-02-21T02:07:21;41.90;;;9.23;;
48853;SDS011;34673;52.808;17.856;2024-02-21T02:09:49;32.92;;;8.30;;
48853;SDS011;34673;52.808;17.856;2024-02-21T02:12:16;30.52;;;7.60;;
48853;SDS011;34673;52.808;17.856;2024-02-21T02:14:44;37.30;;;8.00;;
48853;SDS011;34673;52.808;17.856;2024-02-21T02:17:11;34.65;;;7.47;;
48853;SDS011;34673;52.808;17.856;2024-02-21T02:19:39;36.40;;;7.97;;
48853;SDS011;34673;52.808;17.856;2024-02-21T02:22:09;37.70;;;8.18;;
48853;SDS011;34673;52.808;17.856;2024-02-21T02:24:43;31.58;;;7.97;;
48853;SDS011;34673;52.808;17.856;2024-02-21T02:27:11;38.22;;;8.43;;
48853;SDS011;34673;52.808;17.856;2024-02-21T02:29:38;42.33;;;7.78;;
48853;SDS011;34673;52.808;17.856;2024-02-21T02:32:05;31.83;;;7.38;;
48853;SDS011;34673;52.808;17.856;2024-02-21T02:34:33;38.17;;;7.65;;
48853;SDS011;34673;52.808;17.856;2024-02-21T02:37:00;35.90;;;7.70;;
48853;SDS011;34673;52.808;17.856;2024-02-21T02:39:28;31.63;;;7.03;;
48853;SDS011;34673;52.808;17.856;2024-02-21T02:41:55;39.80;;;8.50;;
48853;SDS011;34673;52.808;17.856;2024-02-21T02:44:22;30.58;;;6.95;;
48853;SDS011;34673;52.808;17.856;2024-02-21T02:46:50;32.58;;;6.72;;
48853;SDS011;34673;52.808;17.856;2024-02-21T02:49:18;31.70;;;7.03;;
48853;SDS011;34673;52.808;17.856;2024-02-21T02:51:46;34.55;;;7.60;;
48853;SDS011;34673;52.808;17.856;2024-02-21T02:54:13;34.13;;;6.90;;
48853;SDS011;34673;52.808;17.856;2024-02-21T02:56:40;35.72;;;7.03;;
48853;SDS011;34673;52.808;17.856;2024-02-21T02:59:08;27.55;;;7.75;;
48853;SDS011;34673;52.808;17.856;2024-02-21T03:01:35;34.15;;;7.53;;
48853;SDS011;34673;52.808;17.856;2024-02-21T03:04:03;34.20;;;7.47;;
48853;SDS011;34673;52.808;17.856;2024-02-21T03:06:30;25.65;;;6.82;;
48853;SDS011;34673;52.808;17.856;2024-02-21T03:08:58;42.65;;;7.35;;
48853;SDS011;34673;52.808;17.856;2024-02-21T03:11:27;39.67;;;8.00;;
48853;SDS011;34673;52.808;17.856;2024-02-21T03:13:57;31.38;;;6.75;;
48853;SDS011;34673;52.808;17.856;2024-02-21T03:16:24;34.80;;;7.45;;
48853;SDS011;34673;52.808;17.856;2024-02-21T03:18:52;34.17;;;7.57;;
48853;SDS011;34673;52.808;17.856;2024-02-21T03:21:19;45.50;;;8.70;;
48853;SDS011;34673;52.808;17.856;2024-02-21T03:23:47;30.55;;;7.15;;
48853;SDS011;34673;52.808;17.856;2024-02-21T03:26:14;42.65;;;8.80;;
48853;SDS011;34673;52.808;17.856;2024-02-21T03:28:44;38.30;;;8.47;;
48853;SDS011;34673;52.808;17.856;2024-02-21T03:31:15;36.70;;;8.73;;
48853;SDS011;34673;52.808;17.856;2024-02-21T03:33:42;51.85;;;9.48;;
48853;SDS011;34673;52.808;17.856;2024-02-21T03:36:14;43.13;;;9.35;;
48853;SDS011;34673;52.808;17.856;2024-02-21T03:38:42;34.80;;;8.75;;
48853;SDS011;34673;52.808;17.856;2024-02-21T03:41:10;37.13;;;9.15;;
48853;SDS011;34673;52.808;17.856;2024-02-21T03:43:37;39.15;;;8.40;;
48853;SDS011;34673;52.808;17.856;2024-02-21T03:46:05;32.58;;;9.02;;
48853;SDS011;34673;52.808;17.856;2024-02-21T03:48:34;32.20;;;9.13;;
48853;SDS011;34673;52.808;17.856;2024-02-21T03:51:02;36.45;;;8.77;;
48853;SDS011;34673;52.808;17.856;2024-02-21T03:53:30;29.92;;;8.90;;
48853;SDS011;34673;52.808;17.856;2024-02-21T03:56:00;35.90;;;9.80;;
48853;SDS011;34673;52.808;17.856;2024-02-21T03:58:31;38.15;;;9.48;;
48853;SDS011;34673;52.808;17.856;2024-02-21T04:01:01;41.53;;;10.10;;
48853;SDS011;34673;52.808;17.856;2024-02-21T04:03:30;37.28;;;9.18;;
48853;SDS011;34673;52.808;17.856;2024-02-21T04:05:58;43.47;;;10.82;;
48853;SDS011;34673;52.808;17.856;2024-02-21T04:08:25;37.53;;;10.38;;
48853;SDS011;34673;52.808;17.856;2024-02-21T04:10:53;52.92;;;11.80;;
48853;SDS011;34673;52.808;17.856;2024-02-21T04:13:20;37.78;;;10.80;;
48853;SDS011;34673;52.808;17.856;2024-02-21T04:15:49;45.35;;;11.57;;
48853;SDS011;34673;52.808;17.856;2024-02-21T04:18:17;41.30;;;10.98;;
48853;SDS011;34673;52.808;17.856;2024-02-21T04:20:44;45.08;;;9.80;;
48853;SDS011;34673;52.808;17.856;2024-02-21T04:23:12;36.85;;;10.48;;
48853;SDS011;34673;52.808;17.856;2024-02-21T04:25:39;30.83;;;9.60;;
48853;SDS011;34673;52.808;17.856;2024-02-21T04:28:06;44.35;;;12.15;;
48853;SDS011;34673;52.808;17.856;2024-02-21T04:30:34;37.78;;;9.63;;
48853;SDS011;34673;52.808;17.856;2024-02-21T04:33:01;36.83;;;10.20;;
48853;SDS011;34673;52.808;17.856;2024-02-21T04:35:29;32.60;;;10.32;;
48853;SDS011;34673;52.808;17.856;2024-02-21T04:37:57;40.22;;;11.27;;
48853;SDS011;34673;52.808;17.856;2024-02-21T04:40:24;33.80;;;10.55;;
48853;SDS011;34673;52.808;17.856;2024-02-21T04:42:51;39.88;;;11.38;;
48853;SDS011;34673;52.808;17.856;2024-02-21T04:45:19;40.00;;;11.18;;
48853;SDS011;34673;52.808;17.856;2024-02-21T04:47:46;35.97;;;9.95;;
48853;SDS011;34673;52.808;17.856;2024-02-21T04:50:14;44.42;;;12.45;;
48853;SDS011;34673;52.808;17.856;2024-02-21T04:52:42;47.35;;;12.13;;
48853;SDS011;34673;52.808;17.856;2024-02-21T04:55:10;43.80;;;13.35;;
48853;SDS011;34673;52.808;17.856;2024-02-21T04:57:37;42.17;;;12.50;;
48853;SDS011;34673;52.808;17.856;2024-02-21T05:00:05;42.90;;;12.88;;
48853;SDS011;34673;52.808;17.856;2024-02-21T05:02:33;47.17;;;13.60;;
48853;SDS011;34673;52.808;17.856;2024-02-21T05:05:01;41.28;;;12.07;;
48853;SDS011;34673;52.808;17.856;2024-02-21T05:07:29;47.05;;;12.63;;
48853;SDS011;34673;52.808;17.856;2024-02-21T05:09:57;49.38;;;14.50;;
48853;SDS011;34673;52.808;17.856;2024-02-21T05:12:24;55.88;;;15.27;;
48853;SDS011;34673;52.808;17.856;2024-02-21T05:14:51;51.90;;;14.20;;
48853;SDS011;34673;52.808;17.856;2024-02-21T05:17:19;50.15;;;15.05;;
48853;SDS011;34673;52.808;17.856;2024-02-21T05:19:46;33.80;;;12.52;;
48853;SDS011;34673;52.808;17.856;2024-02-21T05:22:14;50.15;;;15.30;;
48853;SDS011;34673;52.808;17.856;2024-02-21T05:24:42;38.70;;;13.48;;
48853;SDS011;34673;52.808;17.856;2024-02-21T05:27:09;40.33;;;14.70;;
48853;SDS011;34673;52.808;17.856;2024-02-21T05:29:37;37.13;;;14.68;;
48853;SDS011;34673;52.808;17.856;2024-02-21T05:32:05;51.00;;;16.17;;
48853;SDS011;34673;52.808;17.856;2024-02-21T05:34:33;49.47;;;15.23;;
48853;SDS011;34673;52.808;17.856;2024-02-21T05:37:00;44.78;;;15.45;;
48853;SDS011;34673;52.808;17.856;2024-02-21T05:39:28;46.38;;;14.43;;
48853;SDS011;34673;52.808;17.856;2024-02-21T05:41:56;48.70;;;15.70;;
48853;SDS011;34673;52.808;17.856;2024-02-21T05:44:23;48.75;;;15.98;;
48853;SDS011;34673;52.808;17.856;2024-02-21T05:46:51;46.95;;;17.40;;
48853;SDS011;34673;52.808;17.856;2024-02-21T05:49:18;53.45;;;16.60;;
48853;SDS011;34673;52.808;17.856;2024-02-21T05:51:46;49.33;;;15.32;;
48853;SDS011;34673;52.808;17.856;2024-02-21T05:54:14;60.22;;;18.67;;
48853;SDS011;34673;52.808;17.856;2024-02-21T05:56:45;54.80;;;17.08;;
48853;SDS011;34673;52.808;17.856;2024-02-21T05:59:13;60.47;;;18.13;;
48853;SDS011;34673;52.808;17.856;2024-02-21T06:01:41;53.47;;;18.90;;
48853;SDS011;34673;52.808;17.856;2024-02-21T06:04:09;48.05;;;15.07;;
48853;SDS011;34673;52.808;17.856;2024-02-21T06:06:36;48.75;;;15.48;;
48853;SDS011;34673;52.808;17.856;2024-02-21T06:09:04;60.10;;;17.67;;
48853;SDS011;34673;52.808;17.856;2024-02-21T06:11:32;53.58;;;16.40;;
48853;SDS011;34673;52.808;17.856;2024-02-21T06:13:59;39.08;;;14.23;;
48853;SDS011;34673;52.808;17.856;2024-02-21T06:16:27;57.78;;;15.68;;
48853;SDS011;34673;52.808;17.856;2024-02-21T06:18:55;50.30;;;15.23;;
48853;SDS011;34673;52.808;17.856;2024-02-21T06:21:22;45.58;;;14.18;;
48853;SDS011;34673;52.808;17.856;2024-02-21T06:23:50;44.63;;;14.85;;
48853;SDS011;34673;52.808;17.856;2024-02-21T06:26:17;41.47;;;13.05;;
48853;SDS011;34673;52.808;17.856;2024-02-21T06:28:44;54.90;;;15.48;;
48853;SDS011;34673;52.808;17.856;2024-02-21T06:31:13;50.53;;;14.07;;
48853;SDS011;34673;52.808;17.856;2024-02-21T06:33:41;34.28;;;13.00;;
48853;SDS011;34673;52.808;17.856;2024-02-21T06:36:08;49.50;;;13.57;;
48853;SDS011;34673;52.808;17.856;2024-02-21T06:38:36;33.25;;;11.98;;
48853;SDS011;34673;52.808;17.856;2024-02-21T06:41:03;45.70;;;12.40;;
48853;SDS011;34673;52.808;17.856;2024-02-21T06:43:31;45.80;;;12.70;;
48853;SDS011;34673;52.808;17.856;2024-02-21T06:45:59;33.28;;;11.65;;
48853;SDS011;34673;52.808;17.856;2024-02-21T06:48:26;36.08;;;10.95;;
48853;SDS011;34673;52.808;17.856;2024-02-21T06:50:54;42.88;;;12.25;;
48853;SDS011;34673;52.808;17.856;2024-02-21T06:53:21;46.60;;;12.30;;
48853;SDS011;34673;52.808;17.856;2024-02-21T06:55:49;50.60;;;14.45;;
48853;SDS011;34673;52.808;17.856;2024-02-21T06:58:16;37.67;;;12.25;;
48853;SDS011;34673;52.808;17.856;2024-02-21T07:00:44;35.17;;;10.23;;
48853;SDS011;34673;52.808;17.856;2024-02-21T07:03:12;39.30;;;11.88;;
48853;SDS011;34673;52.808;17.856;2024-02-21T07:05:40;35.90;;;10.25;;
48853;SDS011;34673;52.808;17.856;2024-02-21T07:08:07;42.30;;;11.02;;
48853;SDS011;34673;52.808;17.856;2024-02-21T07:10:35;45.15;;;13.13;;
48853;SDS011;34673;52.808;17.856;2024-02-21T07:13:02;38.78;;;11.70;;
48853;SDS011;34673;52.808;17.856;2024-02-21T07:15:30;36.30;;;11.50;;
48853;SDS011;34673;52.808;17.856;2024-02-21T07:17:57;42.40;;;12.55;;
48853;SDS011;34673;52.808;17.856;2024-02-21T07:20:26;41.45;;;12.65;;
48853;SDS011;34673;52.808;17.856;2024-02-21T07:22:54;37.13;;;10.48;;
48853;SDS011;34673;52.808;17.856;2024-02-21T07:25:21;41.83;;;11.65;;
48853;SDS011;34673;52.808;17.856;2024-02-21T07:27:49;40.97;;;11.57;;
48853;SDS011;34673;52.808;17.856;2024-02-21T07:30:16;31.85;;;11.35;;
48853;SDS011;34673;52.808;17.856;2024-02-21T07:32:44;38.63;;;12.18;;
48853;SDS011;34673;52.808;17.856;2024-02-21T07:35:11;33.90;;;11.40;;
48853;SDS011;34673;52.808;17.856;2024-02-21T07:37:39;29.52;;;10.52;;
48853;SDS011;34673;52.808;17.856;2024-02-21T07:40:12;35.47;;;11.55;;
48853;SDS011;34673;52.808;17.856;2024-02-21T07:42:40;41.47;;;12.63;;
48853;SDS011;34673;52.808;17.856;2024-02-21T07:45:08;39.13;;;12.10;;
48853;SDS011;34673;52.808;17.856;2024-02-21T07:47:37;40.05;;;11.70;;
48853;SDS011;34673;52.808;17.856;2024-02-21T07:50:04;39.90;;;13.02;;
48853;SDS011;34673;52.808;17.856;2024-02-21T07:52:32;36.40;;;10.75;;
48853;SDS011;34673;52.808;17.856;2024-02-21T07:55:00;43.78;;;13.10;;
48853;SDS011;34673;52.808;17.856;2024-02-21T07:57:27;41.97;;;10.73;;
48853;SDS011;34673;52.808;17.856;2024-02-21T07:59:55;36.42;;;12.30;;
48853;SDS011;34673;52.808;17.856;2024-02-21T08:02:22;44.67;;;11.98;;
48853;SDS011;34673;52.808;17.856;2024-02-21T08:04:50;41.40;;;12.18;;
48853;SDS011;34673;52.808;17.856;2024-02-21T08:07:17;38.50;;;10.65;;
48853;SDS011;34673;52.808;17.856;2024-02-21T08:09:45;42.10;;;13.18;;
48853;SDS011;34673;52.808;17.856;2024-02-21T08:12:12;40.22;;;12.30;;
48853;SDS011;34673;52.808;17.856;2024-02-21T08:14:40;46.00;;;12.63;;
48853;SDS011;34673;52.808;17.856;2024-02-21T08:17:07;42.13;;;13.07;;
48853;SDS011;34673;52.808;17.856;2024-02-21T08:19:36;37.72;;;12.55;;
48853;SDS011;34673;52.808;17.856;2024-02-21T08:22:04;35.40;;;13.00;;
48853;SDS011;34673;52.808;17.856;2024-02-21T08:24:31;45.97;;;12.30;;
48853;SDS011;34673;52.808;17.856;2024-02-21T08:26:59;44.28;;;13.77;;
48853;SDS011;34673;52.808;17.856;2024-02-21T08:29:26;38.58;;;13.30;;
48853;SDS011;34673;52.808;17.856;2024-02-21T08:31:54;37.88;;;12.77;;
48853;SDS011;34673;52.808;17.856;2024-02-21T08:34:21;41.30;;;14.35;;
48853;SDS011;34673;52.808;17.856;2024-02-21T08:36:49;45.72;;;13.07;;
48853;SDS011;34673;52.808;17.856;2024-02-21T08:39:17;34.85;;;12.85;;
48853;SDS011;34673;52.808;17.856;2024-02-21T08:41:44;37.13;;;12.27;;
48853;SDS011;34673;52.808;17.856;2024-02-21T08:44:23;39.28;;;14.48;;
48853;SDS011;34673;52.808;17.856;2024-02-21T08:46:54;38.50;;;14.00;;
48853;SDS011;34673;52.808;17.856;2024-02-21T08:49:23;47.08;;;14.55;;
48853;SDS011;34673;52.808;17.856;2024-02-21T08:51:52;42.95;;;13.52;;
48853;SDS011;34673;52.808;17.856;2024-02-21T08:54:20;36.63;;;13.77;;
48853;SDS011;34673;52.808;17.856;2024-02-21T08:56:47;40.03;;;12.55;;
48853;SDS011;34673;52.808;17.856;2024-02-21T08:59:14;36.33;;;12.88;;
48853;SDS011;34673;52.808;17.856;2024-02-21T09:01:42;31.13;;;12.13;;
48853;SDS011;34673;52.808;17.856;2024-02-21T09:04:11;43.10;;;14.10;;
48853;SDS011;34673;52.808;17.856;2024-02-21T09:06:39;37.85;;;13.95;;
48853;SDS011;34673;52.808;17.856;2024-02-21T09:11:37;35.67;;;13.00;;
48853;SDS011;34673;52.808;17.856;2024-02-21T09:14:04;32.35;;;13.20;;
48853;SDS011;34673;52.808;17.856;2024-02-21T09:16:32;41.53;;;13.77;;
48853;SDS011;34673;52.808;17.856;2024-02-21T09:19:00;31.70;;;13.43;;
48853;SDS011;34673;52.808;17.856;2024-02-21T09:21:30;47.53;;;16.40;;
48853;SDS011;34673;52.808;17.856;2024-02-21T09:24:00;40.33;;;14.57;;
48853;SDS011;34673;52.808;17.856;2024-02-21T09:26:27;40.40;;;14.05;;
48853;SDS011;34673;52.808;17.856;2024-02-21T09:28:55;42.08;;;16.73;;
48853;SDS011;34673;52.808;17.856;2024-02-21T09:31:22;39.72;;;15.77;;
48853;SDS011;34673;52.808;17.856;2024-02-21T09:33:50;39.05;;;14.73;;
48853;SDS011;34673;52.808;17.856;2024-02-21T09:36:18;42.50;;;16.13;;
48853;SDS011;34673;52.808;17.856;2024-02-21T09:38:45;48.53;;;17.42;;
48853;SDS011;34673;52.808;17.856;2024-02-21T09:41:16;36.20;;;15.38;;
48853;SDS011;34673;52.808;17.856;2024-02-21T09:43:51;50.80;;;17.98;;
48853;SDS011;34673;52.808;17.856;2024-02-21T09:46:30;32.47;;;14.60;;
48853;SDS011;34673;52.808;17.856;2024-02-21T09:52:00;40.00;;;16.17;;
48853;SDS011;34673;52.808;17.856;2024-02-21T09:54:34;36.97;;;15.68;;
48853;SDS011;34673;52.808;17.856;2024-02-21T09:57:03;46.05;;;17.20;;
48853;SDS011;34673;52.808;17.856;2024-02-21T09:59:32;44.90;;;17.97;;
48853;SDS011;34673;52.808;17.856;2024-02-21T10:02:00;37.58;;;15.40;;
48853;SDS011;34673;52.808;17.856;2024-02-21T10:04:29;37.22;;;16.20;;
48853;SDS011;34673;52.808;17.856;2024-02-21T10:06:57;45.53;;;17.27;;
48853;SDS011;34673;52.808;17.856;2024-02-21T10:09:27;38.40;;;17.50;;
48853;SDS011;34673;52.808;17.856;2024-02-21T10:12:18;40.60;;;16.75;;
48853;SDS011;34673;52.808;17.856;2024-02-21T10:14:46;40.38;;;17.50;;
48853;SDS011;34673;52.808;17.856;2024-02-21T10:17:17;37.13;;;16.25;;
48853;SDS011;34673;52.808;17.856;2024-02-21T10:19:47;49.45;;;18.00;;
48853;SDS011;34673;52.808;17.856;2024-02-21T10:22:17;39.25;;;16.70;;
48853;SDS011;34673;52.808;17.856;2024-02-21T10:24:45;32.60;;;16.73;;
48853;SDS011;34673;52.808;17.856;2024-02-21T10:27:13;39.35;;;17.45;;
48853;SDS011;34673;52.808;17.856;2024-02-21T10:29:41;35.75;;;17.05;;
48853;SDS011;34673;52.808;17.856;2024-02-21T10:32:12;43.65;;;17.45;;
48853;SDS011;34673;52.808;17.856;2024-02-21T10:34:41;41.92;;;18.05;;
48853;SDS011;34673;52.808;17.856;2024-02-21T10:37:11;41.47;;;16.65;;
48853;SDS011;34673;52.808;17.856;2024-02-21T10:39:39;39.88;;;17.20;;
48853;SDS011;34673;52.808;17.856;2024-02-21T10:42:11;37.67;;;16.70;;
48853;SDS011;34673;52.808;17.856;2024-02-21T10:44:40;43.05;;;19.42;;
48853;SDS011;34673;52.808;17.856;2024-02-21T10:47:09;41.20;;;18.85;;
48853;SDS011;34673;52.808;17.856;2024-02-21T10:49:39;36.38;;;18.02;;
48853;SDS011;34673;52.808;17.856;2024-02-21T10:54:39;41.60;;;17.10;;
48853;SDS011;34673;52.808;17.856;2024-02-21T10:57:12;39.00;;;18.15;;
48853;SDS011;34673;52.808;17.856;2024-02-21T10:59:44;42.88;;;18.58;;
48853;SDS011;34673;52.808;17.856;2024-02-21T11:02:12;41.60;;;19.10;;
48853;SDS011;34673;52.808;17.856;2024-02-21T11:04:40;38.10;;;17.60;;
48853;SDS011;34673;52.808;17.856;2024-02-21T11:07:09;36.35;;;17.95;;
48853;SDS011;34673;52.808;17.856;2024-02-21T11:09:37;42.88;;;19.52;;
48853;SDS011;34673;52.808;17.856;2024-02-21T11:12:05;41.00;;;18.98;;
48853;SDS011;34673;52.808;17.856;2024-02-21T11:14:34;41.65;;;18.90;;
48853;SDS011;34673;52.808;17.856;2024-02-21T11:17:17;42.63;;;19.30;;
48853;SDS011;34673;52.808;17.856;2024-02-21T11:19:46;41.85;;;18.13;;
48853;SDS011;34673;52.808;17.856;2024-02-21T11:22:15;40.92;;;19.52;;
48853;SDS011;34673;52.808;17.856;2024-02-21T11:24:44;42.27;;;17.67;;
48853;SDS011;34673;52.808;17.856;2024-02-21T11:27:13;50.45;;;20.65;;
48853;SDS011;34673;52.808;17.856;2024-02-21T11:29:45;45.50;;;20.73;;
48853;SDS011;34673;52.808;17.856;2024-02-21T11:32:32;42.60;;;19.55;;
48853;SDS011;34673;52.808;17.856;2024-02-21T11:35:00;48.80;;;19.92;;
48853;SDS011;34673;52.808;17.856;2024-02-21T11:37:30;43.88;;;19.30;;
48853;SDS011;34673;52.808;17.856;2024-02-21T11:40:01;45.65;;;20.05;;
48853;SDS011;34673;52.808;17.856;2024-02-21T11:42:30;41.47;;;19.02;;
48853;SDS011;34673;52.808;17.856;2024-02-21T11:44:59;45.47;;;20.83;;
48853;SDS011;34673;52.808;17.856;2024-02-21T11:47:30;48.53;;;20.13;;
48853;SDS011;34673;52.808;17.856;2024-02-21T11:49:58;43.63;;;20.23;;
48853;SDS011;34673;52.808;17.856;2024-02-21T11:52:26;43.85;;;20.80;;
48853;SDS011;34673;52.808;17.856;2024-02-21T11:54:55;37.70;;;18.73;;
48853;SDS011;34673;52.808;17.856;2024-02-21T11:57:32;52.10;;;20.42;;
48853;SDS011;34673;52.808;17.856;2024-02-21T11:59:59;50.60;;;21.33;;
48853;SDS011;34673;52.808;17.856;2024-02-21T12:02:37;39.33;;;18.55;;
48853;SDS011;34673;52.808;17.856;2024-02-21T12:05:04;41.53;;;19.10;;
48853;SDS011;34673;52.808;17.856;2024-02-21T12:07:32;41.85;;;19.55;;
48853;SDS011;34673;52.808;17.856;2024-02-21T12:10:00;38.60;;;18.80;;
48853;SDS011;34673;52.808;17.856;2024-02-21T12:12:27;44.42;;;20.30;;
48853;SDS011;34673;52.808;17.856;2024-02-21T12:14:55;41.08;;;19.15;;
48853;SDS011;34673;52.808;17.856;2024-02-21T12:17:26;43.55;;;19.50;;
48853;SDS011;34673;52.808;17.856;2024-02-21T12:19:53;39.10;;;18.63;;
48853;SDS011;34673;52.808;17.856;2024-02-21T12:22:21;40.90;;;17.10;;
48853;SDS011;34673;52.808;17.856;2024-02-21T12:24:48;35.03;;;17.17;;
48853;SDS011;34673;52.808;17.856;2024-02-21T12:27:16;38.20;;;16.83;;
48853;SDS011;34673;52.808;17.856;2024-02-21T12:29:43;37.92;;;17.83;;
48853;SDS011;34673;52.808;17.856;2024-02-21T12:32:11;45.42;;;18.02;;
48853;SDS011;34673;52.808;17.856;2024-02-21T12:34:38;41.92;;;16.42;;
48853;SDS011;34673;52.808;17.856;2024-02-21T12:37:21;48.25;;;18.73;;
48853;SDS011;34673;52.808;17.856;2024-02-21T12:39:51;42.75;;;18.25;;
48853;SDS011;34673;52.808;17.856;2024-02-21T12:42:19;44.65;;;18.40;;
48853;SDS011;34673;52.808;17.856;2024-02-21T12:44:46;37.95;;;16.92;;
48853;SDS011;34673;52.808;17.856;2024-02-21T12:47:14;34.78;;;16.23;;
48853;SDS011;34673;52.808;17.856;2024-02-21T12:49:41;39.30;;;16.10;;
48853;SDS011;34673;52.808;17.856;2024-02-21T12:54:40;38.42;;;16.70;;
48853;SDS011;34673;52.808;17.856;2024-02-21T12:57:09;44.40;;;18.58;;
48853;SDS011;34673;52.808;17.856;2024-02-21T12:59:37;40.55;;;17.50;;
48853;SDS011;34673;52.808;17.856;2024-02-21T13:02:04;33.20;;;15.98;;
48853;SDS011;34673;52.808;17.856;2024-02-21T13:04:32;35.75;;;15.80;;
48853;SDS011;34673;52.808;17.856;2024-02-21T13:07:00;38.63;;;14.88;;
48853;SDS011;34673;52.808;17.856;2024-02-21T13:09:28;34.35;;;15.98;;
48853;SDS011;34673;52.808;17.856;2024-02-21T13:11:55;40.25;;;16.13;;
48853;SDS011;34673;52.808;17.856;2024-02-21T13:14:24;38.08;;;16.55;;
48853;SDS011;34673;52.808;17.856;2024-02-21T13:16:52;39.33;;;15.57;;
48853;SDS011;34673;52.808;17.856;2024-02-21T13:19:20;44.08;;;15.63;;
48853;SDS011;34673;52.808;17.856;2024-02-21T13:21:49;45.10;;;16.75;;
48853;SDS011;34673;52.808;17.856;2024-02-21T13:24:17;43.45;;;17.00;;
48853;SDS011;34673;52.808;17.856;2024-02-21T13:26:45;41.83;;;17.30;;
48853;SDS011;34673;52.808;17.856;2024-02-21T13:29:13;41.40;;;17.77;;
48853;SDS011;34673;52.808;17.856;2024-02-21T13:31:41;48.95;;;17.35;;
48853;SDS011;34673;52.808;17.856;2024-02-21T13:34:09;46.60;;;18.13;;
48853;SDS011;34673;52.808;17.856;2024-02-21T13:36:38;38.47;;;15.65;;
48853;SDS011;34673;52.808;17.856;2024-02-21T13:39:06;43.65;;;17.02;;
48853;SDS011;34673;52.808;17.856;2024-02-21T13:41:35;41.60;;;15.52;;
48853;SDS011;34673;52.808;17.856;2024-02-21T13:44:04;43.25;;;17.52;;
48853;SDS011;34673;52.808;17.856;2024-02-21T13:46:32;39.58;;;15.98;;
48853;SDS011;34673;52.808;17.856;2024-02-21T13:49:04;43.65;;;17.20;;
48853;SDS011;34673;52.808;17.856;2024-02-21T13:51:35;45.47;;;16.77;;
48853;SDS011;34673;52.808;17.856;2024-02-21T13:54:08;40.72;;;17.83;;
48853;SDS011;34673;52.808;17.856;2024-02-21T13:56:37;45.72;;;18.00;;
48853;SDS011;34673;52.808;17.856;2024-02-21T13:59:05;47.22;;;17.90;;
48853;SDS011;34673;52.808;17.856;2024-02-21T14:01:33;44.63;;;17.83;;
48853;SDS011;34673;52.808;17.856;2024-02-21T14:04:02;41.67;;;17.43;;
48853;SDS011;34673;52.808;17.856;2024-02-21T14:06:31;49.78;;;18.42;;
48853;SDS011;34673;52.808;17.856;2024-02-21T14:08:58;45.55;;;17.75;;
48853;SDS011;34673;52.808;17.856;2024-02-21T14:11:26;47.95;;;18.02;;
48853;SDS011;34673;52.808;17.856;2024-02-21T14:13:54;46.83;;;17.77;;
48853;SDS011;34673;52.808;17.856;2024-02-21T14:16:24;41.80;;;17.30;;
48853;SDS011;34673;52.808;17.856;2024-02-21T14:18:52;43.30;;;16.90;;
48853;SDS011;34673;52.808;17.856;2024-02-21T14:21:21;41.50;;;18.15;;
48853;SDS011;34673;52.808;17.856;2024-02-21T14:23:48;43.47;;;16.92;;
48853;SDS011;34673;52.808;17.856;2024-02-21T14:26:16;47.75;;;18.58;;
48853;SDS011;34673;52.808;17.856;2024-02-21T14:28:43;39.38;;;16.67;;
48853;SDS011;34673;52.808;17.856;2024-02-21T14:31:12;46.80;;;18.38;;